sensor_id;sensor_type;location;lat;lon;timestamp;temperature;humidity
47805;DHT22;33568;45.286;9.900;2023-10-19T00:01:10;16.20;95.40
47805;DHT22;33568;45.286;9.900;2023-10-19T00:03:56;16.30;95.30
47805;DHT22;33568;45.286;9.900;2023-10-19T00:06:40;16.40;95.10
47805;DHT22;33568;45.286;9.900;2023-10-19T00:09:07;16.50;94.80
47805;DHT22;33568;45.286;9.900;2023-10-19T00:11:37;16.50;94.80
47805;DHT22;33568;45.286;9.900;2023-10-19T00:14:07;16.30;94.50
47805;DHT22;33568;45.286;9.900;2023-10-19T00:19:47;15.70;94.90
47805;DHT22;33568;45.286;9.900;2023-10-19T00:23:04;15.40;95.60
47805;DHT22;33568;45.286;9.900;2023-10-19T00:25:32;15.40;95.90
47805;DHT22;33568;45.286;9.900;2023-10-19T00:28:01;15.40;96.00
47805;DHT22;33568;45.286;9.900;2023-10-19T00:30:31;15.40;95.90
47805;DHT22;33568;45.286;9.900;2023-10-19T00:33:00;15.50;96.20
47805;DHT22;33568;45.286;9.900;2023-10-19T00:35:30;15.50;96.10
47805;DHT22;33568;45.286;9.900;2023-10-19T00:38:02;15.60;96.10
47805;DHT22;33568;45.286;9.900;2023-10-19T00:41:07;15.60;95.90
47805;DHT22;33568;45.286;9.900;2023-10-19T00:43:56;15.70;96.10
47805;DHT22;33568;45.286;9.900;2023-10-19T00:46:29;15.80;95.80
47805;DHT22;33568;45.286;9.900;2023-10-19T00:49:36;15.90;95.80
47805;DHT22;33568;45.286;9.900;2023-10-19T00:52:06;15.90;95.60
47805;DHT22;33568;45.286;9.900;2023-10-19T00:55:19;15.90;95.70
47805;DHT22;33568;45.286;9.900;2023-10-19T00:57:48;15.90;95.30
47805;DHT22;33568;45.286;9.900;2023-10-19T01:00:15;15.90;95.40
47805;DHT22;33568;45.286;9.900;2023-10-19T01:02:57;15.70;95.40
47805;DHT22;33568;45.286;9.900;2023-10-19T01:05:29;15.80;95.70
47805;DHT22;33568;45.286;9.900;2023-10-19T01:08:20;15.80;95.60
47805;DHT22;33568;45.286;9.900;2023-10-19T01:10:52;15.70;95.60
47805;DHT22;33568;45.286;9.900;2023-10-19T01:13:19;15.70;95.60
47805;DHT22;33568;45.286;9.900;2023-10-19T01:16:15;15.80;95.80
47805;DHT22;33568;45.286;9.900;2023-10-19T01:19:00;15.90;95.70
47805;DHT22;33568;45.286;9.900;2023-10-19T01:21:51;15.90;95.60
47805;DHT22;33568;45.286;9.900;2023-10-19T01:24:37;15.90;95.40
47805;DHT22;33568;45.286;9.900;2023-10-19T01:27:26;15.70;95.30
47805;DHT22;33568;45.286;9.900;2023-10-19T01:29:53;15.60;95.50
47805;DHT22;33568;45.286;9.900;2023-10-19T01:32:19;15.60;95.90
47805;DHT22;33568;45.286;9.900;2023-10-19T01:34:46;15.70;95.90
47805;DHT22;33568;45.286;9.900;2023-10-19T01:37:12;15.80;95.90
47805;DHT22;33568;45.286;9.900;2023-10-19T01:42:24;15.90;95.30
47805;DHT22;33568;45.286;9.900;2023-10-19T01:44:52;15.90;95.40
47805;DHT22;33568;45.286;9.900;2023-10-19T01:47:18;15.80;95.40
47805;DHT22;33568;45.286;9.900;2023-10-19T01:49:46;15.80;95.90
47805;DHT22;33568;45.286;9.900;2023-10-19T01:52:18;15.90;95.90
47805;DHT22;33568;45.286;9.900;2023-10-19T01:55:04;16.00;95.50
47805;DHT22;33568;45.286;9.900;2023-10-19T01:57:33;16.10;95.20
47805;DHT22;33568;45.286;9.900;2023-10-19T02:00:19;16.10;95.10
47805;DHT22;33568;45.286;9.900;2023-10-19T02:06:13;15.80;95.00
47805;DHT22;33568;45.286;9.900;2023-10-19T02:09:27;15.60;95.30
47805;DHT22;33568;45.286;9.900;2023-10-19T02:12:12;15.40;95.60
47805;DHT22;33568;45.286;9.900;2023-10-19T02:14:39;15.20;95.90
47805;DHT22;33568;45.286;9.900;2023-10-19T02:17:05;15.30;96.20
47805;DHT22;33568;45.286;9.900;2023-10-19T02:19:31;15.40;96.60
47805;DHT22;33568;45.286;9.900;2023-10-19T02:22:35;15.50;96.10
47805;DHT22;33568;45.286;9.900;2023-10-19T02:25:02;15.50;96.10
47805;DHT22;33568;45.286;9.900;2023-10-19T02:27:30;15.60;96.10
47805;DHT22;33568;45.286;9.900;2023-10-19T02:29:56;15.70;96.00
47805;DHT22;33568;45.286;9.900;2023-10-19T02:32:23;15.70;96.10
47805;DHT22;33568;45.286;9.900;2023-10-19T02:34:50;15.80;96.00
47805;DHT22;33568;45.286;9.900;2023-10-19T02:44:02;15.60;95.70
47805;DHT22;33568;45.286;9.900;2023-10-19T02:46:36;15.50;95.60
47805;DHT22;33568;45.286;9.900;2023-10-19T02:49:07;15.50;96.10
47805;DHT22;33568;45.286;9.900;2023-10-19T02:51:59;15.70;96.10
47805;DHT22;33568;45.286;9.900;2023-10-19T02:54:49;15.90;96.00
47805;DHT22;33568;45.286;9.900;2023-10-19T02:57:34;16.10;95.60
47805;DHT22;33568;45.286;9.900;2023-10-19T03:00:01;16.20;95.60
47805;DHT22;33568;45.286;9.900;2023-10-19T03:02:33;16.10;95.20
47805;DHT22;33568;45.286;9.900;2023-10-19T03:04:59;16.10;95.40
47805;DHT22;33568;45.286;9.900;2023-10-19T03:07:45;16.10;95.80
47805;DHT22;33568;45.286;9.900;2023-10-19T03:13:30;16.20;95.30
47805;DHT22;33568;45.286;9.900;2023-10-19T03:15:59;16.30;95.20
47805;DHT22;33568;45.286;9.900;2023-10-19T03:18:44;16.40;95.10
47805;DHT22;33568;45.286;9.900;2023-10-19T03:21:11;16.30;94.90
47805;DHT22;33568;45.286;9.900;2023-10-19T03:23:37;16.40;94.90
47805;DHT22;33568;45.286;9.900;2023-10-19T03:26:04;16.40;94.80
47805;DHT22;33568;45.286;9.900;2023-10-19T03:28:30;16.40;95.00
47805;DHT22;33568;45.286;9.900;2023-10-19T03:31:20;16.40;94.90
47805;DHT22;33568;45.286;9.900;2023-10-19T03:33:48;16.40;94.70
47805;DHT22;33568;45.286;9.900;2023-10-19T03:36:35;16.40;94.70
47805;DHT22;33568;45.286;9.900;2023-10-19T03:39:21;16.40;94.50
47805;DHT22;33568;45.286;9.900;2023-10-19T03:42:06;16.40;94.70
47805;DHT22;33568;45.286;9.900;2023-10-19T03:47:23;16.40;94.70
47805;DHT22;33568;45.286;9.900;2023-10-19T03:50:05;16.30;94.70
47805;DHT22;33568;45.286;9.900;2023-10-19T03:52:50;16.20;94.80
47805;DHT22;33568;45.286;9.900;2023-10-19T03:55:18;16.20;94.80
47805;DHT22;33568;45.286;9.900;2023-10-19T03:58:03;16.30;94.80
47805;DHT22;33568;45.286;9.900;2023-10-19T04:00:30;16.40;94.70
47805;DHT22;33568;45.286;9.900;2023-10-19T04:02:59;16.30;94.60
47805;DHT22;33568;45.286;9.900;2023-10-19T04:05:25;16.20;94.60
47805;DHT22;33568;45.286;9.900;2023-10-19T04:11:01;16.10;95.00
47805;DHT22;33568;45.286;9.900;2023-10-19T04:13:46;16.20;94.80
47805;DHT22;33568;45.286;9.900;2023-10-19T04:16:12;16.20;94.70
47805;DHT22;33568;45.286;9.900;2023-10-19T04:18:40;16.10;94.90
47805;DHT22;33568;45.286;9.900;2023-10-19T04:21:25;16.10;94.90
47805;DHT22;33568;45.286;9.900;2023-10-19T04:23:51;16.10;94.90
47805;DHT22;33568;45.286;9.900;2023-10-19T04:26:39;16.00;94.90
47805;DHT22;33568;45.286;9.900;2023-10-19T04:32:12;15.80;95.20
47805;DHT22;33568;45.286;9.900;2023-10-19T04:34:40;15.80;95.50
47805;DHT22;33568;45.286;9.900;2023-10-19T04:37:07;15.80;95.60
47805;DHT22;33568;45.286;9.900;2023-10-19T04:39:33;15.90;95.50
47805;DHT22;33568;45.286;9.900;2023-10-19T04:42:00;16.00;95.60
47805;DHT22;33568;45.286;9.900;2023-10-19T04:44:27;16.10;95.30
47805;DHT22;33568;45.286;9.900;2023-10-19T04:46:53;16.20;95.20
47805;DHT22;33568;45.286;9.900;2023-10-19T04:49:19;16.30;95.30
47805;DHT22;33568;45.286;9.900;2023-10-19T04:51:46;16.30;95.00
47805;DHT22;33568;45.286;9.900;2023-10-19T04:54:12;16.40;94.90
47805;DHT22;33568;45.286;9.900;2023-10-19T04:56:38;16.30;95.10
47805;DHT22;33568;45.286;9.900;2023-10-19T04:59:04;16.20;95.10
47805;DHT22;33568;45.286;9.900;2023-10-19T05:01:50;16.10;95.00
47805;DHT22;33568;45.286;9.900;2023-10-19T05:04:17;16.00;95.00
47805;DHT22;33568;45.286;9.900;2023-10-19T05:06:44;15.90;95.00
47805;DHT22;33568;45.286;9.900;2023-10-19T05:09:10;15.80;95.20
47805;DHT22;33568;45.286;9.900;2023-10-19T05:11:38;15.70;96.00
47805;DHT22;33568;45.286;9.900;2023-10-19T05:14:06;15.70;95.40
47805;DHT22;33568;45.286;9.900;2023-10-19T05:27:38;15.70;95.80
47805;DHT22;33568;45.286;9.900;2023-10-19T05:30:05;15.70;95.70
47805;DHT22;33568;45.286;9.900;2023-10-19T05:35:17;15.60;95.90
47805;DHT22;33568;45.286;9.900;2023-10-19T05:37:49;15.60;96.00
47805;DHT22;33568;45.286;9.900;2023-10-19T05:40:15;15.60;96.00
47805;DHT22;33568;45.286;9.900;2023-10-19T05:43:02;15.60;96.10
47805;DHT22;33568;45.286;9.900;2023-10-19T05:46:06;15.50;96.20
47805;DHT22;33568;45.286;9.900;2023-10-19T05:48:51;15.40;96.40
47805;DHT22;33568;45.286;9.900;2023-10-19T05:51:20;15.40;96.40
47805;DHT22;33568;45.286;9.900;2023-10-19T05:54:05;15.40;96.50
47805;DHT22;33568;45.286;9.900;2023-10-19T05:56:50;15.50;96.60
47805;DHT22;33568;45.286;9.900;2023-10-19T05:59:36;15.50;96.50
47805;DHT22;33568;45.286;9.900;2023-10-19T06:02:21;15.40;96.70
47805;DHT22;33568;45.286;9.900;2023-10-19T06:04:48;15.50;96.80
47805;DHT22;33568;45.286;9.900;2023-10-19T06:07:14;15.60;96.70
47805;DHT22;33568;45.286;9.900;2023-10-19T06:09:40;15.50;96.80
47805;DHT22;33568;45.286;9.900;2023-10-19T06:12:07;15.50;97.50
47805;DHT22;33568;45.286;9.900;2023-10-19T06:14:35;15.70;96.80
47805;DHT22;33568;45.286;9.900;2023-10-19T06:17:03;15.80;96.60
47805;DHT22;33568;45.286;9.900;2023-10-19T06:22:35;15.60;96.40
47805;DHT22;33568;45.286;9.900;2023-10-19T06:25:04;15.50;96.60
47805;DHT22;33568;45.286;9.900;2023-10-19T06:27:51;15.50;96.90
47805;DHT22;33568;45.286;9.900;2023-10-19T06:30:19;15.50;97.10
47805;DHT22;33568;45.286;9.900;2023-10-19T06:32:53;15.60;97.00
47805;DHT22;33568;45.286;9.900;2023-10-19T06:35:38;15.70;96.90
47805;DHT22;33568;45.286;9.900;2023-10-19T06:38:06;15.80;96.80
47805;DHT22;33568;45.286;9.900;2023-10-19T06:40:35;15.80;96.90
47805;DHT22;33568;45.286;9.900;2023-10-19T06:43:02;15.80;96.80
47805;DHT22;33568;45.286;9.900;2023-10-19T06:45:47;15.80;96.70
47805;DHT22;33568;45.286;9.900;2023-10-19T06:48:14;15.70;96.70
47805;DHT22;33568;45.286;9.900;2023-10-19T06:50:41;15.70;96.70
47805;DHT22;33568;45.286;9.900;2023-10-19T06:53:44;15.70;96.90
47805;DHT22;33568;45.286;9.900;2023-10-19T06:56:48;15.60;97.00
47805;DHT22;33568;45.286;9.900;2023-10-19T06:59:15;15.50;96.90
47805;DHT22;33568;45.286;9.900;2023-10-19T07:01:59;15.40;97.60
47805;DHT22;33568;45.286;9.900;2023-10-19T07:04:46;15.40;97.20
47805;DHT22;33568;45.286;9.900;2023-10-19T07:09:59;15.50;97.60
47805;DHT22;33568;45.286;9.900;2023-10-19T07:12:46;15.70;97.30
47805;DHT22;33568;45.286;9.900;2023-10-19T07:15:32;15.60;97.20
47805;DHT22;33568;45.286;9.900;2023-10-19T07:17:58;15.70;97.70
47805;DHT22;33568;45.286;9.900;2023-10-19T07:20:24;15.80;97.20
47805;DHT22;33568;45.286;9.900;2023-10-19T07:23:42;15.90;97.40
47805;DHT22;33568;45.286;9.900;2023-10-19T07:26:10;16.10;96.90
47805;DHT22;33568;45.286;9.900;2023-10-19T07:28:37;16.00;97.20
47805;DHT22;33568;45.286;9.900;2023-10-19T07:31:06;16.00;96.80
47805;DHT22;33568;45.286;9.900;2023-10-19T07:36:27;16.10;96.70
47805;DHT22;33568;45.286;9.900;2023-10-19T07:38:55;16.00;96.50
47805;DHT22;33568;45.286;9.900;2023-10-19T07:41:21;15.90;96.60
47805;DHT22;33568;45.286;9.900;2023-10-19T07:43:47;15.80;96.70
47805;DHT22;33568;45.286;9.900;2023-10-19T07:46:32;15.70;97.60
47805;DHT22;33568;45.286;9.900;2023-10-19T07:48:59;15.70;97.10
47805;DHT22;33568;45.286;9.900;2023-10-19T07:51:46;15.70;97.00
47805;DHT22;33568;45.286;9.900;2023-10-19T07:54:32;15.70;97.30
47805;DHT22;33568;45.286;9.900;2023-10-19T07:59:44;15.80;97.30
47805;DHT22;33568;45.286;9.900;2023-10-19T08:02:11;16.00;97.10
47805;DHT22;33568;45.286;9.900;2023-10-19T08:04:37;16.00;97.10
47805;DHT22;33568;45.286;9.900;2023-10-19T08:07:22;16.00;97.60
47805;DHT22;33568;45.286;9.900;2023-10-19T08:10:11;16.10;97.10
47805;DHT22;33568;45.286;9.900;2023-10-19T08:12:39;16.10;97.00
47805;DHT22;33568;45.286;9.900;2023-10-19T08:15:45;16.10;96.90
47805;DHT22;33568;45.286;9.900;2023-10-19T08:18:11;16.10;96.90
47805;DHT22;33568;45.286;9.900;2023-10-19T08:21:18;16.10;97.00
47805;DHT22;33568;45.286;9.900;2023-10-19T08:24:03;16.10;97.10
47805;DHT22;33568;45.286;9.900;2023-10-19T08:26:31;16.10;97.00
47805;DHT22;33568;45.286;9.900;2023-10-19T08:28:57;16.10;97.00
47805;DHT22;33568;45.286;9.900;2023-10-19T08:31:25;16.10;97.00
47805;DHT22;33568;45.286;9.900;2023-10-19T08:33:51;16.10;97.10
47805;DHT22;33568;45.286;9.900;2023-10-19T08:36:36;16.10;97.40
47805;DHT22;33568;45.286;9.900;2023-10-19T08:39:22;16.20;97.00
47805;DHT22;33568;45.286;9.900;2023-10-19T08:41:51;16.30;96.80
47805;DHT22;33568;45.286;9.900;2023-10-19T08:44:20;16.40;96.80
47805;DHT22;33568;45.286;9.900;2023-10-19T08:46:46;16.50;96.70
47805;DHT22;33568;45.286;9.900;2023-10-19T08:52:24;16.50;96.50
47805;DHT22;33568;45.286;9.900;2023-10-19T08:54:52;16.50;96.70
47805;DHT22;33568;45.286;9.900;2023-10-19T08:57:19;16.60;96.60
47805;DHT22;33568;45.286;9.900;2023-10-19T09:00:05;16.50;96.60
47805;DHT22;33568;45.286;9.900;2023-10-19T09:05:18;16.30;96.60
47805;DHT22;33568;45.286;9.900;2023-10-19T09:07:52;16.20;96.80
47805;DHT22;33568;45.286;9.900;2023-10-19T09:10:24;16.20;97.00
47805;DHT22;33568;45.286;9.900;2023-10-19T09:13:02;16.30;97.10
47805;DHT22;33568;45.286;9.900;2023-10-19T09:15:29;16.30;97.10
47805;DHT22;33568;45.286;9.900;2023-10-19T09:18:21;16.30;97.00
47805;DHT22;33568;45.286;9.900;2023-10-19T09:20:51;16.30;97.30
47805;DHT22;33568;45.286;9.900;2023-10-19T09:23:28;16.30;97.40
47805;DHT22;33568;45.286;9.900;2023-10-19T09:29:00;16.70;97.00
47805;DHT22;33568;45.286;9.900;2023-10-19T09:31:27;16.80;96.60
47805;DHT22;33568;45.286;9.900;2023-10-19T09:33:54;16.80;96.60
47805;DHT22;33568;45.286;9.900;2023-10-19T09:36:24;16.80;96.60
47805;DHT22;33568;45.286;9.900;2023-10-19T09:38:54;17.00;96.40
47805;DHT22;33568;45.286;9.900;2023-10-19T09:41:24;17.00;96.30
47805;DHT22;33568;45.286;9.900;2023-10-19T09:44:04;17.00;96.10
47805;DHT22;33568;45.286;9.900;2023-10-19T09:46:33;17.00;96.20
47805;DHT22;33568;45.286;9.900;2023-10-19T09:49:03;17.10;96.20
47805;DHT22;33568;45.286;9.900;2023-10-19T09:58:15;17.20;95.70
47805;DHT22;33568;45.286;9.900;2023-10-19T10:01:01;17.20;95.80
47805;DHT22;33568;45.286;9.900;2023-10-19T10:03:49;17.20;95.80
47805;DHT22;33568;45.286;9.900;2023-10-19T10:06:17;17.20;95.70
47805;DHT22;33568;45.286;9.900;2023-10-19T10:09:05;17.20;95.70
47805;DHT22;33568;45.286;9.900;2023-10-19T10:11:37;17.10;95.80
47805;DHT22;33568;45.286;9.900;2023-10-19T10:14:26;17.10;95.90
47805;DHT22;33568;45.286;9.900;2023-10-19T10:17:04;17.20;95.80
47805;DHT22;33568;45.286;9.900;2023-10-19T10:19:55;17.20;95.70
47805;DHT22;33568;45.286;9.900;2023-10-19T10:22:42;17.10;95.80
47805;DHT22;33568;45.286;9.900;2023-10-19T10:25:08;17.10;95.90
47805;DHT22;33568;45.286;9.900;2023-10-19T10:28:05;17.10;96.00
47805;DHT22;33568;45.286;9.900;2023-10-19T10:30:32;16.90;96.10
47805;DHT22;33568;45.286;9.900;2023-10-19T10:32:59;17.00;96.10
47805;DHT22;33568;45.286;9.900;2023-10-19T10:38:06;17.00;96.20
47805;DHT22;33568;45.286;9.900;2023-10-19T10:40:47;17.00;96.30
47805;DHT22;33568;45.286;9.900;2023-10-19T10:43:32;17.00;96.30
47805;DHT22;33568;45.286;9.900;2023-10-19T10:46:17;17.00;96.30
47805;DHT22;33568;45.286;9.900;2023-10-19T10:48:44;17.00;96.40
47805;DHT22;33568;45.286;9.900;2023-10-19T10:51:15;16.90;96.40
47805;DHT22;33568;45.286;9.900;2023-10-19T10:54:00;16.80;97.00
47805;DHT22;33568;45.286;9.900;2023-10-19T10:56:26;16.80;96.60
47805;DHT22;33568;45.286;9.900;2023-10-19T10:58:54;16.80;96.60
47805;DHT22;33568;45.286;9.900;2023-10-19T11:01:29;16.90;96.60
47805;DHT22;33568;45.286;9.900;2023-10-19T11:04:06;16.90;96.50
47805;DHT22;33568;45.286;9.900;2023-10-19T11:07:18;17.00;96.50
47805;DHT22;33568;45.286;9.900;2023-10-19T11:09:46;17.00;96.50
47805;DHT22;33568;45.286;9.900;2023-10-19T11:12:16;17.00;96.50
47805;DHT22;33568;45.286;9.900;2023-10-19T11:15:01;16.90;96.60
47805;DHT22;33568;45.286;9.900;2023-10-19T11:17:43;17.10;96.60
47805;DHT22;33568;45.286;9.900;2023-10-19T11:20:09;17.00;96.60
47805;DHT22;33568;45.286;9.900;2023-10-19T11:23:05;17.00;96.40
47805;DHT22;33568;45.286;9.900;2023-10-19T11:25:33;17.00;96.80
47805;DHT22;33568;45.286;9.900;2023-10-19T11:28:00;17.00;96.70
47805;DHT22;33568;45.286;9.900;2023-10-19T11:30:29;17.00;96.80
47805;DHT22;33568;45.286;9.900;2023-10-19T11:32:56;17.00;96.60
47805;DHT22;33568;45.286;9.900;2023-10-19T11:35:30;17.00;96.60
47805;DHT22;33568;45.286;9.900;2023-10-19T11:38:34;17.00;96.70
47805;DHT22;33568;45.286;9.900;2023-10-19T11:41:01;17.00;96.70
47805;DHT22;33568;45.286;9.900;2023-10-19T11:43:29;17.20;96.50
47805;DHT22;33568;45.286;9.900;2023-10-19T11:46:16;17.20;96.50
47805;DHT22;33568;45.286;9.900;2023-10-19T11:49:02;17.20;96.50
47805;DHT22;33568;45.286;9.900;2023-10-19T11:51:47;17.20;97.00
47805;DHT22;33568;45.286;9.900;2023-10-19T11:54:14;17.10;96.60
47805;DHT22;33568;45.286;9.900;2023-10-19T11:56:59;17.00;97.70
47805;DHT22;33568;45.286;9.900;2023-10-19T11:59:25;16.90;97.10
47805;DHT22;33568;45.286;9.900;2023-10-19T12:01:52;16.90;98.00
47805;DHT22;33568;45.286;9.900;2023-10-19T12:04:19;17.00;97.30
47805;DHT22;33568;45.286;9.900;2023-10-19T12:07:03;17.20;97.40
47805;DHT22;33568;45.286;9.900;2023-10-19T12:09:30;17.10;97.30
47805;DHT22;33568;45.286;9.900;2023-10-19T12:11:56;17.00;97.80
47805;DHT22;33568;45.286;9.900;2023-10-19T12:14:22;17.00;97.50
47805;DHT22;33568;45.286;9.900;2023-10-19T12:16:49;17.00;97.50
47805;DHT22;33568;45.286;9.900;2023-10-19T12:19:15;16.90;97.60
47805;DHT22;33568;45.286;9.900;2023-10-19T12:21:44;16.90;98.70
47805;DHT22;33568;45.286;9.900;2023-10-19T12:24:28;16.90;98.10
47805;DHT22;33568;45.286;9.900;2023-10-19T12:26:55;16.90;98.20
47805;DHT22;33568;45.286;9.900;2023-10-19T12:29:22;17.00;98.50
47805;DHT22;33568;45.286;9.900;2023-10-19T12:32:07;17.00;98.80
47805;DHT22;33568;45.286;9.900;2023-10-19T12:34:35;17.00;98.90
47805;DHT22;33568;45.286;9.900;2023-10-19T12:37:20;16.90;99.00
47805;DHT22;33568;45.286;9.900;2023-10-19T12:39:46;17.00;99.00
47805;DHT22;33568;45.286;9.900;2023-10-19T12:42:16;16.90;99.30
47805;DHT22;33568;45.286;9.900;2023-10-19T12:44:42;16.90;99.00
47805;DHT22;33568;45.286;9.900;2023-10-19T12:49:55;17.00;99.20
47805;DHT22;33568;45.286;9.900;2023-10-19T12:55:47;17.00;99.40
47805;DHT22;33568;45.286;9.900;2023-10-19T12:58:13;17.00;99.50
47805;DHT22;33568;45.286;9.900;2023-10-19T13:00:45;17.00;99.50
47805;DHT22;33568;45.286;9.900;2023-10-19T13:03:13;17.00;99.30
47805;DHT22;33568;45.286;9.900;2023-10-19T13:05:40;17.00;99.50
47805;DHT22;33568;45.286;9.900;2023-10-19T13:08:08;17.00;99.50
47805;DHT22;33568;45.286;9.900;2023-10-19T13:10:53;17.00;99.40
47805;DHT22;33568;45.286;9.900;2023-10-19T13:13:20;16.90;99.40
47805;DHT22;33568;45.286;9.900;2023-10-19T13:15:50;16.70;99.40
47805;DHT22;33568;45.286;9.900;2023-10-19T13:18:37;16.70;99.70
47805;DHT22;33568;45.286;9.900;2023-10-19T13:24:13;16.60;99.80
47805;DHT22;33568;45.286;9.900;2023-10-19T13:27:18;16.60;99.90
47805;DHT22;33568;45.286;9.900;2023-10-19T13:29:45;16.70;99.90
47805;DHT22;33568;45.286;9.900;2023-10-19T13:32:35;16.70;99.90
47805;DHT22;33568;45.286;9.900;2023-10-19T13:35:39;16.70;99.90
47805;DHT22;33568;45.286;9.900;2023-10-19T13:41:47;16.80;99.90
47805;DHT22;33568;45.286;9.900;2023-10-19T13:44:14;16.70;99.90
47805;DHT22;33568;45.286;9.900;2023-10-19T13:46:42;16.70;99.90
47805;DHT22;33568;45.286;9.900;2023-10-19T13:49:08;16.70;99.90
47805;DHT22;33568;45.286;9.900;2023-10-19T13:54:21;16.70;99.90
47805;DHT22;33568;45.286;9.900;2023-10-19T13:57:05;16.70;99.90
47805;DHT22;33568;45.286;9.900;2023-10-19T13:59:32;16.70;99.90
47805;DHT22;33568;45.286;9.900;2023-10-19T14:02:17;16.60;99.90
47805;DHT22;33568;45.286;9.900;2023-10-19T14:04:45;16.60;99.90
47805;DHT22;33568;45.286;9.900;2023-10-19T14:07:31;16.60;99.90
47805;DHT22;33568;45.286;9.900;2023-10-19T14:09:58;16.60;99.90
47805;DHT22;33568;45.286;9.900;2023-10-19T14:12:43;16.60;99.90
47805;DHT22;33568;45.286;9.900;2023-10-19T14:15:14;16.60;99.90
47805;DHT22;33568;45.286;9.900;2023-10-19T14:18:20;16.70;99.90
47805;DHT22;33568;45.286;9.900;2023-10-19T14:20:48;16.70;99.90
47805;DHT22;33568;45.286;9.900;2023-10-19T14:23:32;16.80;99.90
47805;DHT22;33568;45.286;9.900;2023-10-19T14:25:59;16.80;99.90
47805;DHT22;33568;45.286;9.900;2023-10-19T14:28:25;16.70;99.90
47805;DHT22;33568;45.286;9.900;2023-10-19T14:30:51;16.70;99.90
47805;DHT22;33568;45.286;9.900;2023-10-19T14:33:18;16.70;99.90
47805;DHT22;33568;45.286;9.900;2023-10-19T14:36:04;16.70;99.90
47805;DHT22;33568;45.286;9.900;2023-10-19T14:38:30;16.80;99.90
47805;DHT22;33568;45.286;9.900;2023-10-19T14:43:42;16.80;99.90
47805;DHT22;33568;45.286;9.900;2023-10-19T14:48:56;16.70;99.90
47805;DHT22;33568;45.286;9.900;2023-10-19T14:51:22;16.70;99.90
47805;DHT22;33568;45.286;9.900;2023-10-19T14:54:07;16.60;99.90
47805;DHT22;33568;45.286;9.900;2023-10-19T14:56:33;16.60;99.90
47805;DHT22;33568;45.286;9.900;2023-10-19T14:58:59;16.60;99.90
47805;DHT22;33568;45.286;9.900;2023-10-19T15:01:26;16.70;99.90
47805;DHT22;33568;45.286;9.900;2023-10-19T15:03:52;16.70;99.90
47805;DHT22;33568;45.286;9.900;2023-10-19T15:06:18;16.70;99.90
47805;DHT22;33568;45.286;9.900;2023-10-19T15:09:03;16.70;99.90
47805;DHT22;33568;45.286;9.900;2023-10-19T15:11:30;16.70;99.90
47805;DHT22;33568;45.286;9.900;2023-10-19T15:13:56;16.70;99.90
47805;DHT22;33568;45.286;9.900;2023-10-19T15:19:28;16.60;99.90
47805;DHT22;33568;45.286;9.900;2023-10-19T15:21:54;16.60;99.90
47805;DHT22;33568;45.286;9.900;2023-10-19T15:27:06;16.60;99.90
47805;DHT22;33568;45.286;9.900;2023-10-19T15:29:33;16.50;99.90
47805;DHT22;33568;45.286;9.900;2023-10-19T15:32:00;16.60;99.90
47805;DHT22;33568;45.286;9.900;2023-10-19T15:34:26;16.60;99.90
47805;DHT22;33568;45.286;9.900;2023-10-19T15:39:56;16.60;99.90
47805;DHT22;33568;45.286;9.900;2023-10-19T15:42:42;16.60;99.90
47805;DHT22;33568;45.286;9.900;2023-10-19T15:45:14;16.70;99.90
47805;DHT22;33568;45.286;9.900;2023-10-19T15:47:45;16.60;99.90
47805;DHT22;33568;45.286;9.900;2023-10-19T15:50:30;16.60;99.90
47805;DHT22;33568;45.286;9.900;2023-10-19T15:52:56;16.50;99.90
47805;DHT22;33568;45.286;9.900;2023-10-19T15:55:22;16.50;99.90
47805;DHT22;33568;45.286;9.900;2023-10-19T16:00:36;16.50;99.90
47805;DHT22;33568;45.286;9.900;2023-10-19T16:03:23;16.50;99.90
47805;DHT22;33568;45.286;9.900;2023-10-19T16:05:49;16.50;99.90
47805;DHT22;33568;45.286;9.900;2023-10-19T16:08:15;16.40;99.90
47805;DHT22;33568;45.286;9.900;2023-10-19T16:10:42;16.40;99.90
47805;DHT22;33568;45.286;9.900;2023-10-19T16:16:31;16.40;99.90
47805;DHT22;33568;45.286;9.900;2023-10-19T16:18:58;16.50;99.90
47805;DHT22;33568;45.286;9.900;2023-10-19T16:21:25;16.50;99.90
47805;DHT22;33568;45.286;9.900;2023-10-19T16:26:37;16.40;99.90
47805;DHT22;33568;45.286;9.900;2023-10-19T16:29:22;16.40;99.90
47805;DHT22;33568;45.286;9.900;2023-10-19T16:32:08;16.40;99.90
47805;DHT22;33568;45.286;9.900;2023-10-19T16:37:20;16.40;99.90
47805;DHT22;33568;45.286;9.900;2023-10-19T16:42:53;16.40;99.90
47805;DHT22;33568;45.286;9.900;2023-10-19T16:45:19;16.50;99.90
47805;DHT22;33568;45.286;9.900;2023-10-19T16:47:46;16.40;99.90
47805;DHT22;33568;45.286;9.900;2023-10-19T16:50:31;16.40;99.90
47805;DHT22;33568;45.286;9.900;2023-10-19T16:52:58;16.30;99.90
47805;DHT22;33568;45.286;9.900;2023-10-19T16:55:25;16.30;99.90
47805;DHT22;33568;45.286;9.900;2023-10-19T16:57:53;16.40;99.90
47805;DHT22;33568;45.286;9.900;2023-10-19T17:00:21;16.30;99.90
47805;DHT22;33568;45.286;9.900;2023-10-19T17:02:48;16.30;99.90
47805;DHT22;33568;45.286;9.900;2023-10-19T17:05:33;16.30;99.90
47805;DHT22;33568;45.286;9.900;2023-10-19T17:13:31;16.30;99.90
47805;DHT22;33568;45.286;9.900;2023-10-19T17:15:58;16.30;99.90
47805;DHT22;33568;45.286;9.900;2023-10-19T17:21:29;16.30;99.90
47805;DHT22;33568;45.286;9.900;2023-10-19T17:23:56;16.30;99.90
47805;DHT22;33568;45.286;9.900;2023-10-19T17:26:24;16.20;99.90
47805;DHT22;33568;45.286;9.900;2023-10-19T17:28:51;16.20;99.90
47805;DHT22;33568;45.286;9.900;2023-10-19T17:31:38;16.20;99.90
47805;DHT22;33568;45.286;9.900;2023-10-19T17:34:05;16.20;99.90
47805;DHT22;33568;45.286;9.900;2023-10-19T17:36:33;16.20;99.90
47805;DHT22;33568;45.286;9.900;2023-10-19T17:38:59;16.20;99.90
47805;DHT22;33568;45.286;9.900;2023-10-19T17:41:26;16.30;99.90
47805;DHT22;33568;45.286;9.900;2023-10-19T17:43:53;16.30;99.90
47805;DHT22;33568;45.286;9.900;2023-10-19T17:46:20;16.30;99.90
47805;DHT22;33568;45.286;9.900;2023-10-19T17:48:46;16.30;99.90
47805;DHT22;33568;45.286;9.900;2023-10-19T17:51:14;16.30;99.90
47805;DHT22;33568;45.286;9.900;2023-10-19T17:53:59;16.40;99.90
47805;DHT22;33568;45.286;9.900;2023-10-19T17:56:26;16.40;99.90
47805;DHT22;33568;45.286;9.900;2023-10-19T17:59:11;16.30;99.90
47805;DHT22;33568;45.286;9.900;2023-10-19T18:01:56;16.30;99.90
47805;DHT22;33568;45.286;9.900;2023-10-19T18:04:41;16.30;99.90
47805;DHT22;33568;45.286;9.900;2023-10-19T18:07:09;16.30;99.90
47805;DHT22;33568;45.286;9.900;2023-10-19T18:09:55;16.40;99.90
47805;DHT22;33568;45.286;9.900;2023-10-19T18:12:21;16.30;99.90
47805;DHT22;33568;45.286;9.900;2023-10-19T18:14:49;16.30;99.90
47805;DHT22;33568;45.286;9.900;2023-10-19T18:17:16;16.30;99.90
47805;DHT22;33568;45.286;9.900;2023-10-19T18:19:45;16.30;99.90